Time;durP1;ratioP1;P1;durP2;ratioP2;P2;SDS_P1;SDS_P2;PMS_P1;PMS_P2;Temp;Humidity;BMP_temperature;BMP_pressure;BME280_temperature;BME280_humidity;BME280_pressure;Samples;Min_cycle;Max_cycle;Signal;HPM_P1;HPM_P2
2023/06/18 00:00:39;;;;;;;28.70;13.88;;;17.70;99.90;;;;;;4995462;28;20046;-83
2023/06/18 00:03:06;;;;;;;28.23;13.18;;;17.80;99.90;;;;;;4995183;28;20431;-83
2023/06/18 00:05:33;;;;;;;22.02;11.45;;;17.70;99.90;;;;;;4995668;28;20050;-84
2023/06/18 00:07:59;;;;;;;23.70;11.95;;;17.70;99.90;;;;;;4996400;28;20049;-83
2023/06/18 00:10:26;;;;;;;20.35;10.98;;;17.60;99.90;;;;;;4995424;28;20137;-84
2023/06/18 00:12:53;;;;;;;23.83;11.50;;;17.60;99.90;;;;;;4996038;28;20054;-85
2023/06/18 00:15:20;;;;;;;23.42;12.27;;;17.60;99.90;;;;;;4995379;28;20093;-82
2023/06/18 00:17:46;;;;;;;33.28;14.00;;;17.70;99.90;;;;;;4995473;28;20048;-85
2023/06/18 00:20:14;;;;;;;37.70;13.90;;;17.50;99.90;;;;;;4995659;28;20085;-86
2023/06/18 00:22:41;;;;;;;28.48;14.55;;;17.40;99.90;;;;;;4994904;28;20477;-84
2023/06/18 00:27:55;;;;;;;30.58;15.05;;;17.10;99.90;;;;;;4996380;28;20046;-85
2023/06/18 00:30:22;;;;;;;31.13;14.45;;;17.10;99.90;;;;;;4993483;28;20503;-86
2023/06/18 00:32:51;;;;;;;30.90;15.43;;;17.00;99.90;;;;;;5010620;28;20045;-85
2023/06/18 00:38:05;;;;;;;36.08;16.30;;;17.10;99.90;;;;;;5010525;28;20046;-85
2023/06/18 00:40:33;;;;;;;35.35;15.68;;;17.00;99.90;;;;;;5011179;28;20121;-85
2023/06/18 00:43:03;;;;;;;35.40;16.23;;;17.00;99.90;;;;;;4994618;28;20384;-85
2023/06/18 00:48:17;;;;;;;31.88;16.55;;;16.90;99.90;;;;;;5011053;28;20495;-84
2023/06/18 00:50:44;;;;;;;39.03;17.20;;;16.90;99.90;;;;;;5010347;28;20070;-84
2023/06/18 00:53:12;;;;;;;36.45;17.40;;;16.90;99.90;;;;;;5010775;28;20038;-84
2023/06/18 00:58:25;;;;;;;33.83;16.65;;;16.90;99.90;;;;;;5010058;28;20424;-84
2023/06/18 01:00:52;;;;;;;38.75;17.40;;;16.90;99.90;;;;;;5011127;28;20054;-83
2023/06/18 01:03:20;;;;;;;40.17;19.05;;;16.90;99.90;;;;;;5010534;28;20054;-84
2023/06/18 01:05:49;;;;;;;40.63;17.13;;;16.80;99.90;;;;;;5010075;28;20034;-83
2023/06/18 01:08:17;;;;;;;36.45;17.35;;;16.90;99.90;;;;;;5010880;28;20480;-84
2023/06/18 01:10:43;;;;;;;38.85;17.70;;;16.80;99.90;;;;;;4993754;28;20057;-84
2023/06/18 01:13:10;;;;;;;35.45;19.40;;;16.80;99.90;;;;;;4995146;28;20038;-85
2023/06/18 01:15:38;;;;;;;44.10;19.73;;;16.80;99.90;;;;;;5010750;28;20113;-84
2023/06/18 01:18:07;;;;;;;36.28;19.52;;;16.80;99.90;;;;;;5010014;28;20081;-85
2023/06/18 01:20:40;;;;;;;40.67;19.38;;;16.80;99.90;;;;;;4994349;28;20126;-84
2023/06/18 01:23:09;;;;;;;42.22;19.15;;;16.80;99.90;;;;;;4994104;28;20049;-85
2023/06/18 01:25:40;;;;;;;39.75;20.20;;;16.80;99.90;;;;;;4993590;28;20096;-84
2023/06/18 01:28:07;;;;;;;32.22;17.73;;;16.90;99.90;;;;;;4995257;28;20043;-84
2023/06/18 01:30:36;;;;;;;38.60;17.63;;;16.90;99.90;;;;;;5009795;28;20113;-84
2023/06/18 01:33:03;;;;;;;35.45;19.20;;;16.90;99.90;;;;;;4994344;28;20476;-85
2023/06/18 01:35:31;;;;;;;40.65;19.60;;;16.90;99.90;;;;;;4998064;28;20069;-84
2023/06/18 01:37:58;;;;;;;39.10;19.33;;;16.90;99.90;;;;;;4997369;28;20054;-85
2023/06/18 01:40:25;;;;;;;40.00;19.83;;;16.90;99.90;;;;;;4998159;28;20120;-84
2023/06/18 01:42:54;;;;;;;33.45;15.68;;;16.90;99.90;;;;;;4997873;28;20065;-85
2023/06/18 01:45:23;;;;;;;37.50;19.02;;;17.00;99.90;;;;;;5013608;28;20050;-84
2023/06/18 01:47:51;;;;;;;39.15;20.10;;;17.00;99.90;;;;;;4999046;28;20368;-85
2023/06/18 01:50:18;;;;;;;34.75;17.52;;;17.10;99.90;;;;;;5013596;28;20435;-85
2023/06/18 01:52:45;;;;;;;36.15;18.45;;;17.10;99.90;;;;;;4998712;28;20070;-85
2023/06/18 01:58:15;;;;;;;38.28;17.77;;;17.00;99.90;;;;;;5013812;28;20400;-84
2023/06/18 02:00:42;;;;;;;42.28;18.70;;;17.00;99.90;;;;;;5014137;28;20096;-85
2023/06/18 02:03:09;;;;;;;42.25;20.95;;;17.00;99.90;;;;;;4998444;28;20074;-85
2023/06/18 02:05:38;;;;;;;39.20;19.92;;;17.00;99.90;;;;;;4997147;28;20428;-85
2023/06/18 02:08:05;;;;;;;40.05;19.20;;;17.00;99.90;;;;;;4997907;28;20410;-86
2023/06/18 02:10:32;;;;;;;38.88;19.95;;;17.00;99.90;;;;;;4996821;28;20061;-85
2023/06/18 02:12:58;;;;;;;38.97;20.08;;;17.00;99.90;;;;;;5013726;28;20058;-84
2023/06/18 02:18:12;;;;;;;42.67;22.92;;;16.90;99.90;;;;;;4997785;28;20054;-84
2023/06/18 02:20:39;;;;;;;46.00;21.00;;;16.90;99.90;;;;;;4997519;28;20393;-84
2023/06/18 02:23:06;;;;;;;39.88;20.48;;;16.80;99.90;;;;;;4997374;28;20428;-84
2023/06/18 02:28:23;;;;;;;41.70;20.92;;;16.70;99.90;;;;;;4998421;28;20369;-84
2023/06/18 02:30:50;;;;;;;46.20;20.75;;;16.70;99.90;;;;;;4996675;28;20073;-85
2023/06/18 02:33:18;;;;;;;45.72;22.30;;;16.70;99.90;;;;;;4997175;28;20042;-85
2023/06/18 02:35:45;;;;;;;47.67;22.58;;;16.80;99.90;;;;;;5013691;28;20528;-83
2023/06/18 02:38:12;;;;;;;45.83;21.77;;;16.80;99.90;;;;;;5012825;28;20050;-85
2023/06/18 02:40:38;;;;;;;40.92;21.15;;;16.90;99.90;;;;;;5013492;28;20073;-83
2023/06/18 02:43:06;;;;;;;38.70;20.55;;;16.90;99.90;;;;;;5013236;28;20125;-85
2023/06/18 02:48:19;;;;;;;47.90;21.55;;;16.90;99.90;;;;;;5013413;28;20050;-82
2023/06/18 02:50:46;;;;;;;46.15;21.55;;;16.90;99.90;;;;;;4997120;28;20044;-84
2023/06/18 02:53:13;;;;;;;42.90;21.35;;;16.90;99.90;;;;;;4996723;28;20084;-84
2023/06/18 02:55:41;;;;;;;38.05;19.98;;;16.90;99.90;;;;;;5013320;28;20097;-84
2023/06/18 02:58:09;;;;;;;40.83;21.17;;;16.90;99.90;;;;;;5012662;28;20162;-82
2023/06/18 03:00:36;;;;;;;40.92;21.25;;;16.90;99.90;;;;;;5013086;28;20077;-83
2023/06/18 03:03:03;;;;;;;39.05;19.98;;;16.90;99.90;;;;;;5012640;28;20446;-83
2023/06/18 03:05:35;;;;;;;43.20;20.85;;;17.00;99.90;;;;;;5012333;28;20035;-84
2023/06/18 03:08:02;;;;;;;47.42;22.15;;;17.00;99.90;;;;;;4997292;28;20054;-84
2023/06/18 03:10:29;;;;;;;46.80;22.73;;;16.90;99.90;;;;;;5012035;28;20508;-84
2023/06/18 03:12:56;;;;;;;40.72;20.98;;;16.90;99.90;;;;;;4996385;28;20062;-85
2023/06/18 03:15:36;;;;;;;41.15;20.90;;;17.00;99.90;;;;;;5011437;28;20126;-86
2023/06/18 03:18:03;;;;;;;47.15;20.75;;;17.00;99.90;;;;;;5011966;28;20069;-87
2023/06/18 03:20:30;;;;;;;41.85;21.60;;;16.90;99.90;;;;;;4996533;28;20042;-86
2023/06/18 03:22:58;;;;;;;52.70;22.85;;;16.90;99.90;;;;;;4996133;28;20370;-86
2023/06/18 03:28:17;;;;;;;44.85;19.75;;;16.80;99.90;;;;;;4996353;28;20053;-85
2023/06/18 03:30:44;;;;;;;40.05;20.60;;;16.70;99.90;;;;;;4995401;28;20043;-85
2023/06/18 03:33:12;;;;;;;41.85;20.30;;;16.70;99.90;;;;;;4996310;28;20097;-85
2023/06/18 03:38:30;;;;;;;25.48;12.88;;;16.80;99.90;;;;;;5011829;28;20054;-86
2023/06/18 03:41:00;;;;;;;28.40;12.60;;;16.90;99.90;;;;;;5012777;28;20100;-84
2023/06/18 03:43:27;;;;;;;22.58;10.68;;;16.90;99.90;;;;;;4995918;28;20045;-86
2023/06/18 03:48:43;;;;;;;33.90;12.48;;;17.00;99.90;;;;;;5012243;28;20133;-85
2023/06/18 03:51:11;;;;;;;24.95;12.07;;;17.00;99.90;;;;;;4994991;28;20137;-84
2023/06/18 03:53:37;;;;;;;27.70;13.13;;;17.10;99.90;;;;;;5012206;28;20054;-85
2023/06/18 03:56:08;;;;;;;25.88;13.13;;;17.10;99.90;;;;;;4995347;28;20034;-84
2023/06/18 03:58:35;;;;;;;30.65;12.82;;;17.10;99.90;;;;;;4994989;28;20104;-86
2023/06/18 04:01:02;;;;;;;23.88;12.80;;;17.10;99.90;;;;;;4996072;28;20202;-84
2023/06/18 04:03:29;;;;;;;32.28;12.15;;;17.10;99.90;;;;;;5011742;28;20050;-84
2023/06/18 04:05:58;;;;;;;23.55;11.00;;;17.10;99.90;;;;;;5011179;28;20092;-85
2023/06/18 04:08:25;;;;;;;27.88;12.50;;;17.10;99.90;;;;;;5011936;28;20051;-84
2023/06/18 04:10:51;;;;;;;21.52;11.32;;;17.10;99.90;;;;;;5011157;28;20450;-85
2023/06/18 04:13:18;;;;;;;23.00;11.07;;;17.10;99.90;;;;;;5011690;28;20050;-84
2023/06/18 04:18:31;;;;;;;25.13;12.60;;;17.10;99.90;;;;;;5011111;28;20049;-84
2023/06/18 04:20:58;;;;;;;26.85;12.20;;;17.10;99.90;;;;;;5011847;28;20384;-84
2023/06/18 04:23:25;;;;;;;19.95;10.98;;;17.10;99.90;;;;;;5011540;28;20421;-86
2023/06/18 04:28:26;;;;;;;24.02;12.25;;;17.10;99.90;;;;;;5011723;28;20057;-84
2023/06/18 04:30:53;;;;;;;31.48;13.25;;;17.10;99.90;;;;;;4994798;28;20372;-82
2023/06/18 04:33:21;;;;;;;28.42;12.38;;;17.10;99.90;;;;;;5011226;28;20484;-84
2023/06/18 04:38:35;;;;;;;21.80;12.45;;;17.10;99.90;;;;;;4994311;28;20074;-84
2023/06/18 04:41:02;;;;;;;27.50;11.88;;;17.10;99.90;;;;;;5011413;28;20125;-85
2023/06/18 04:43:29;;;;;;;34.28;12.93;;;17.10;99.90;;;;;;5011055;28;20042;-85
2023/06/18 04:48:27;;;;;;;23.92;12.65;;;17.20;99.90;;;;;;5011355;28;20047;-85
2023/06/18 04:50:54;;;;;;;25.50;12.75;;;17.20;99.90;;;;;;4994950;28;20046;-86
2023/06/18 04:53:21;;;;;;;24.60;12.63;;;17.20;99.90;;;;;;4994960;28;20051;-83
2023/06/18 04:58:22;;;;;;;25.55;12.68;;;17.20;99.90;;;;;;4993823;28;20056;-84
2023/06/18 05:00:52;;;;;;;23.98;12.38;;;17.30;99.90;;;;;;5011004;28;20042;-83
2023/06/18 05:03:19;;;;;;;29.73;13.05;;;17.20;99.90;;;;;;4994388;28;20380;-84
2023/06/18 05:05:46;;;;;;;37.60;13.73;;;17.30;99.90;;;;;;5010211;28;20576;-83
2023/06/18 05:08:13;;;;;;;27.38;13.27;;;17.40;99.90;;;;;;5010168;28;20058;-83
2023/06/18 05:10:40;;;;;;;24.63;11.55;;;17.40;99.90;;;;;;5010156;28;20465;-85
2023/06/18 05:13:07;;;;;;;23.48;11.32;;;17.50;99.90;;;;;;5010711;28;20074;-84
2023/06/18 05:18:20;;;;;;;22.30;11.45;;;17.50;99.90;;;;;;5010134;28;20440;-84
2023/06/18 05:20:47;;;;;;;26.75;11.52;;;17.50;99.90;;;;;;4994448;28;20046;-85
2023/06/18 05:23:15;;;;;;;21.38;10.88;;;17.60;99.90;;;;;;5010799;28;20047;-83
2023/06/18 05:25:43;;;;;;;25.35;11.52;;;17.60;99.90;;;;;;4993974;28;20034;-84
2023/06/18 05:28:10;;;;;;;24.05;12.55;;;17.60;99.90;;;;;;4994513;28;20042;-86
2023/06/18 05:30:39;;;;;;;24.52;12.50;;;17.60;99.90;;;;;;5010015;28;20045;-85
2023/06/18 05:33:05;;;;;;;25.20;13.20;;;17.70;99.90;;;;;;5010572;28;20046;-85
2023/06/18 05:35:34;;;;;;;26.50;12.13;;;17.70;99.90;;;;;;4994302;28;20138;-84
2023/06/18 05:38:01;;;;;;;21.35;11.90;;;17.80;99.90;;;;;;4993609;28;20392;-86
2023/06/18 05:40:28;;;;;;;22.20;11.25;;;17.80;99.90;;;;;;4995311;28;20053;-85
2023/06/18 05:42:59;;;;;;;20.88;11.27;;;17.90;99.90;;;;;;5010486;28;20061;-83
2023/06/18 05:48:17;;;;;;;21.85;12.23;;;17.90;99.90;;;;;;4994276;28;20053;-85
2023/06/18 05:50:57;;;;;;;22.42;11.07;;;18.00;99.90;;;;;;5010002;28;20384;-83
2023/06/18 05:53:24;;;;;;;19.92;11.13;;;18.00;99.90;;;;;;5010415;28;20042;-86
2023/06/18 05:58:39;;;;;;;21.95;11.98;;;18.10;99.90;;;;;;5010289;28;20050;-84
2023/06/18 06:01:06;;;;;;;20.33;11.07;;;18.10;99.90;;;;;;4995070;28;20145;-83
2023/06/18 06:03:35;;;;;;;21.08;12.07;;;18.20;99.90;;;;;;5010045;28;20555;-85
2023/06/18 06:06:03;;;;;;;21.25;11.43;;;18.30;99.90;;;;;;4994267;28;20125;-84
2023/06/18 06:08:32;;;;;;;21.63;11.98;;;18.30;99.90;;;;;;4978443;28;20066;-85
2023/06/18 06:11:02;;;;;;;25.23;11.90;;;18.30;99.90;;;;;;4993487;28;20129;-84
2023/06/18 06:13:29;;;;;;;26.45;12.40;;;18.40;99.90;;;;;;4978092;28;20054;-84
2023/06/18 06:16:00;;;;;;;25.58;12.75;;;18.40;99.90;;;;;;4978307;28;20077;-85
2023/06/18 06:18:27;;;;;;;24.23;13.02;;;18.40;99.90;;;;;;5009647;28;20088;-86
2023/06/18 06:20:53;;;;;;;25.77;11.82;;;18.40;99.90;;;;;;4981025;28;20057;-84
2023/06/18 06:23:20;;;;;;;21.17;12.32;;;18.40;99.90;;;;;;4981261;28;20057;-85
2023/06/18 06:25:49;;;;;;;21.55;11.73;;;18.50;99.90;;;;;;4996713;28;20417;-86
2023/06/18 06:28:16;;;;;;;22.92;12.50;;;18.60;99.90;;;;;;4981543;28;20439;-86
2023/06/18 06:30:44;;;;;;;22.88;13.13;;;18.60;99.90;;;;;;4996683;28;20053;-84
2023/06/18 06:33:10;;;;;;;21.20;11.63;;;18.60;99.90;;;;;;5013566;28;20473;-84
2023/06/18 06:35:40;;;;;;;19.98;11.63;;;18.70;99.90;;;;;;4997377;28;20051;-85
2023/06/18 06:38:09;;;;;;;25.25;12.95;;;18.70;99.90;;;;;;4996331;28;20046;-82
2023/06/18 06:40:36;;;;;;;26.08;13.95;;;18.70;99.90;;;;;;4997116;28;20046;-82
2023/06/18 06:43:03;;;;;;;25.33;13.25;;;18.70;99.90;;;;;;4996965;28;20043;-83
2023/06/18 06:45:37;;;;;;;26.95;13.95;;;18.90;99.90;;;;;;4996509;28;20046;-85
2023/06/18 06:48:11;;;;;;;25.25;12.93;;;19.10;99.90;;;;;;5014247;28;20094;-83
2023/06/18 06:50:56;;;;;;;26.92;12.95;;;19.30;99.90;;;;;;4996682;28;20057;-84
2023/06/18 06:53:26;;;;;;;25.65;12.90;;;19.50;99.90;;;;;;4997147;28;20058;-82
2023/06/18 06:58:23;;;;;;;24.80;11.98;;;19.90;99.90;;;;;;4996049;28;20043;-83
2023/06/18 07:00:50;;;;;;;18.45;11.48;;;20.00;99.90;;;;;;4998121;28;20564;-83
2023/06/18 07:03:17;;;;;;;20.58;11.48;;;20.30;99.90;;;;;;4992244;28;20073;-83
2023/06/18 07:08:15;;;;;;;19.17;10.63;;;20.60;99.90;;;;;;4996623;28;20077;-84
2023/06/18 07:10:42;;;;;;;22.75;11.65;;;20.70;99.90;;;;;;4995771;28;20038;-83
2023/06/18 07:13:09;;;;;;;22.52;11.80;;;20.90;99.90;;;;;;4997472;28;20042;-84
2023/06/18 07:15:35;;;;;;;20.52;10.68;;;21.10;99.90;;;;;;4996689;28;20077;-84
2023/06/18 07:18:02;;;;;;;18.42;10.32;;;21.30;99.90;;;;;;4996000;28;20097;-82
2023/06/18 07:20:29;;;;;;;19.73;10.80;;;21.40;99.90;;;;;;4997334;28;20125;-84
2023/06/18 07:22:56;;;;;;;18.73;10.50;;;21.50;99.90;;;;;;4997042;28;20050;-82
2023/06/18 07:28:08;;;;;;;20.17;10.73;;;21.80;99.90;;;;;;4997187;28;20464;-84
2023/06/18 07:30:35;;;;;;;20.35;9.73;;;22.00;99.90;;;;;;4994768;28;20069;-84
2023/06/18 07:33:02;;;;;;;17.23;8.82;;;22.00;99.90;;;;;;4995923;28;20101;-82
2023/06/18 07:35:29;;;;;;;13.70;8.80;;;22.00;99.90;;;;;;4997116;28;20424;-85
2023/06/18 07:37:56;;;;;;;17.40;8.80;;;22.10;99.90;;;;;;4996661;28;20035;-83
2023/06/18 07:40:23;;;;;;;15.20;8.27;;;22.20;99.90;;;;;;4997484;28;20042;-85
2023/06/18 07:42:50;;;;;;;14.82;8.55;;;22.30;99.90;;;;;;4996797;28;20042;-85
2023/06/18 07:48:05;;;;;;;18.65;9.95;;;22.40;99.90;;;;;;4996629;28;20050;-86
2023/06/18 07:50:32;;;;;;;14.30;8.95;;;22.50;99.90;;;;;;4995806;28;20074;-85
2023/06/18 07:52:59;;;;;;;16.88;9.30;;;22.70;99.90;;;;;;4980125;28;20047;-84
2023/06/18 07:55:26;;;;;;;16.88;9.93;;;22.80;99.90;;;;;;4995912;28;20070;-84
2023/06/18 07:57:52;;;;;;;16.05;9.20;;;22.80;99.90;;;;;;4996197;28;20046;-85
2023/06/18 08:00:19;;;;;;;15.82;9.38;;;22.70;99.90;;;;;;4995349;28;20042;-85
2023/06/18 08:02:46;;;;;;;16.05;9.68;;;22.60;99.90;;;;;;4979285;28;20113;-85
2023/06/18 08:08:00;;;;;;;17.98;9.65;;;22.80;99.90;;;;;;4995855;28;20042;-82
2023/06/18 08:10:27;;;;;;;23.73;9.63;;;22.90;99.90;;;;;;4995567;28;20039;-84
2023/06/18 08:12:54;;;;;;;18.88;10.15;;;23.10;99.90;;;;;;4995470;28;20046;-85
2023/06/18 08:18:07;;;;;;;17.80;10.32;;;23.00;99.90;;;;;;4994706;28;20080;-84
2023/06/18 08:20:34;;;;;;;16.92;10.00;;;23.00;99.90;;;;;;4980496;28;20046;-85
2023/06/18 08:23:01;;;;;;;16.27;9.30;;;23.10;99.90;;;;;;4959783;28;20573;-85
2023/06/18 08:27:58;;;;;;;15.80;9.15;;;23.60;99.90;;;;;;4976977;28;20362;-86
2023/06/18 08:30:25;;;;;;;17.80;10.18;;;23.80;99.90;;;;;;4958934;28;20073;-84
2023/06/18 08:32:54;;;;;;;15.73;11.27;;;24.00;99.90;;;;;;4976393;28;20373;-85
2023/06/18 08:38:26;;;;;;;18.63;9.30;;;24.20;99.90;;;;;;4975076;28;20505;-84
2023/06/18 08:41:02;;;;;;;17.10;9.40;;;24.20;99.90;;;;;;4993674;28;20140;-85
2023/06/18 08:43:33;;;;;;;21.27;10.27;;;24.20;99.90;;;;;;4994488;28;20054;-84
2023/06/18 08:48:31;;;;;;;14.52;11.13;;;24.50;99.90;;;;;;4978889;28;20099;-83
2023/06/18 08:51:01;;;;;;;16.77;10.23;;;24.60;99.90;;;;;;4995176;28;20468;-85
2023/06/18 08:53:27;;;;;;;17.58;11.55;;;24.90;99.90;;;;;;4994980;28;20042;-84
2023/06/18 08:55:55;;;;;;;15.73;9.18;;;25.20;99.90;;;;;;4995020;28;20050;-84
2023/06/18 08:58:22;;;;;;;16.20;11.18;;;25.20;99.90;;;;;;4994556;28;20440;-84
2023/06/18 09:00:51;;;;;;;16.90;8.88;;;25.20;99.90;;;;;;4995142;28;20045;-86
2023/06/18 09:03:17;;;;;;;13.77;8.77;;;25.20;99.90;;;;;;4998315;28;20061;-84
2023/06/18 09:08:30;;;;;;;16.92;11.25;;;25.40;99.90;;;;;;5011564;28;20060;-84
2023/06/18 09:10:56;;;;;;;18.33;10.20;;;25.80;99.90;;;;;;4995406;28;20487;-84
2023/06/18 09:13:23;;;;;;;16.45;10.85;;;25.90;99.90;;;;;;4978842;28;20365;-85
2023/06/18 09:15:52;;;;;;;15.70;11.25;;;26.00;99.90;;;;;;4995728;28;20105;-84
2023/06/18 09:18:21;;;;;;;14.65;11.52;;;26.40;99.90;;;;;;4995420;28;20054;-84
2023/06/18 09:20:48;;;;;;;16.35;12.35;;;26.50;99.90;;;;;;4995817;28;20034;-84
2023/06/18 09:23:15;;;;;;;18.63;13.25;;;26.40;99.90;;;;;;4995303;28;20042;-84
2023/06/18 09:25:44;;;;;;;17.98;12.50;;;26.40;99.90;;;;;;4994589;28;20073;-85
2023/06/18 09:28:10;;;;;;;15.88;11.13;;;26.40;99.90;;;;;;5010940;28;20070;-84
2023/06/18 09:30:37;;;;;;;15.75;10.77;;;26.30;99.90;;;;;;4993900;28;20511;-84
2023/06/18 09:33:04;;;;;;;15.15;11.70;;;26.30;99.90;;;;;;4995214;28;20050;-85
2023/06/18 09:35:32;;;;;;;16.17;11.65;;;26.40;99.90;;;;;;4995354;28;20092;-83
2023/06/18 09:37:59;;;;;;;14.55;12.32;;;26.50;99.90;;;;;;4994652;28;20117;-82
2023/06/18 09:40:26;;;;;;;14.75;11.50;;;26.50;99.90;;;;;;5010765;28;20104;-84
2023/06/18 09:42:53;;;;;;;17.58;12.35;;;26.70;99.90;;;;;;4995083;28;20042;-84
2023/06/18 09:48:06;;;;;;;16.23;11.07;;;27.10;99.90;;;;;;4995358;28;20042;-84
2023/06/18 09:50:32;;;;;;;17.08;9.82;;;27.20;99.90;;;;;;4994545;28;20104;-83
2023/06/18 09:52:59;;;;;;;14.13;9.98;;;27.10;99.90;;;;;;5010778;28;20042;-85
2023/06/18 09:55:27;;;;;;;12.57;9.15;;;27.10;99.90;;;;;;5013693;28;20077;-85
2023/06/18 09:57:54;;;;;;;17.00;8.88;;;27.20;99.90;;;;;;4997671;28;20122;-84
2023/06/18 10:00:21;;;;;;;12.90;8.93;;;27.40;99.90;;;;;;5014648;28;20082;-85
2023/06/18 10:02:48;;;;;;;12.20;8.20;;;27.70;99.90;;;;;;4998875;28;20097;-87
2023/06/18 10:05:16;;;;;;;11.57;8.77;;;28.00;99.90;;;;;;4998025;28;20130;-87
2023/06/18 10:07:43;;;;;;;13.55;7.78;;;28.20;99.90;;;;;;4998919;28;20046;-85
2023/06/18 10:10:09;;;;;;;15.02;8.40;;;28.00;99.90;;;;;;4997963;28;20105;-85
2023/06/18 10:12:36;;;;;;;10.30;7.45;;;28.00;99.90;;;;;;4996938;28;20054;-83
2023/06/18 10:15:04;;;;;;;13.57;7.65;;;28.20;99.90;;;;;;4998006;28;20066;-83
2023/06/18 10:17:31;;;;;;;12.10;7.85;;;28.30;99.90;;;;;;4997183;28;20042;-85
2023/06/18 10:19:58;;;;;;;11.13;7.30;;;28.30;99.90;;;;;;4998718;28;20085;-82
2023/06/18 10:22:25;;;;;;;12.80;8.13;;;28.50;99.90;;;;;;4997674;28;20102;-84
2023/06/18 10:27:55;;;;;;;11.85;7.72;;;28.90;99.90;;;;;;4978318;28;20066;-85
2023/06/18 10:30:22;;;;;;;11.32;7.85;;;29.00;99.90;;;;;;4998150;28;20424;-85
2023/06/18 10:32:48;;;;;;;13.23;7.80;;;29.10;99.90;;;;;;4998848;28;20046;-86
2023/06/18 10:35:17;;;;;;;11.43;7.20;;;29.30;99.90;;;;;;4997776;28;20038;-85
2023/06/18 10:37:44;;;;;;;18.35;7.75;;;29.60;99.90;;;;;;4996591;28;20408;-84
2023/06/18 10:40:11;;;;;;;11.13;7.93;;;29.70;99.90;;;;;;4998492;28;20038;-83
2023/06/18 10:42:38;;;;;;;13.50;8.02;;;29.30;99.90;;;;;;4997549;28;20058;-85
2023/06/18 10:45:05;;;;;;;13.20;8.18;;;29.30;99.90;;;;;;4996588;28;20053;-85
2023/06/18 10:47:32;;;;;;;11.80;8.45;;;29.00;99.90;;;;;;4997392;28;20101;-84
2023/06/18 10:49:59;;;;;;;12.52;7.82;;;28.90;99.90;;;;;;4998187;28;20097;-84
2023/06/18 10:52:26;;;;;;;13.57;8.35;;;28.80;99.90;;;;;;4996491;28;20461;-86
2023/06/18 10:54:58;;;;;;;13.95;8.57;;;28.60;99.90;;;;;;4996833;28;20054;-84
2023/06/18 10:57:24;;;;;;;12.15;8.27;;;28.70;99.90;;;;;;4997356;28;20042;-84
2023/06/18 10:59:51;;;;;;;16.13;8.43;;;29.00;99.90;;;;;;4997341;28;20047;-86
2023/06/18 11:02:20;;;;;;;14.20;8.02;;;29.40;99.90;;;;;;4997827;28;20108;-83
2023/06/18 11:04:53;;;;;;;11.85;8.32;;;29.90;99.90;;;;;;4995952;28;20055;-84
2023/06/18 11:07:20;;;;;;;11.38;8.70;;;30.20;99.90;;;;;;4997925;28;20066;-80
2023/06/18 11:09:47;;;;;;;12.00;7.82;;;30.00;99.90;;;;;;4996551;28;20042;-82
2023/06/18 11:12:13;;;;;;;15.13;8.40;;;29.80;99.90;;;;;;5011569;28;20038;-84
2023/06/18 11:14:42;;;;;;;12.50;8.18;;;30.00;99.90;;;;;;4997531;28;20134;-82
2023/06/18 11:17:09;;;;;;;12.07;7.82;;;30.10;99.90;;;;;;4996158;28;20109;-80
2023/06/18 11:19:36;;;;;;;10.77;7.60;;;30.00;99.90;;;;;;4997214;28;20531;-81
2023/06/18 11:22:03;;;;;;;10.00;7.50;;;30.40;99.90;;;;;;4997376;28;20104;-82
2023/06/18 11:27:17;;;;;;;10.00;7.57;;;31.00;99.90;;;;;;4997537;28;20042;-79
2023/06/18 11:29:43;;;;;;;11.88;7.93;;;30.60;99.90;;;;;;4997739;28;20089;-81
2023/06/18 11:32:10;;;;;;;11.18;8.13;;;30.50;99.90;;;;;;4979492;28;20457;-83
2023/06/18 11:34:39;;;;;;;12.93;7.78;;;30.20;99.90;;;;;;4996212;28;20042;-84
2023/06/18 11:37:06;;;;;;;12.05;7.47;;;29.90;99.90;;;;;;5009928;28;20071;-82
2023/06/18 11:39:33;;;;;;;10.73;6.88;;;29.70;99.90;;;;;;4996754;28;20733;-82
2023/06/18 11:42:00;;;;;;;9.73;6.85;;;29.60;99.90;;;;;;4996713;28;20113;-83
2023/06/18 11:44:28;;;;;;;11.43;7.45;;;29.70;99.90;;;;;;5009217;28;20043;-82
2023/06/18 11:46:55;;;;;;;12.95;7.10;;;30.10;99.90;;;;;;4978139;28;20429;-82
2023/06/18 11:49:21;;;;;;;10.38;7.10;;;30.40;99.90;;;;;;4996754;28;20353;-81
2023/06/18 11:51:48;;;;;;;10.65;6.22;;;30.40;99.90;;;;;;4995562;28;20424;-81
2023/06/18 11:54:16;;;;;;;10.48;6.70;;;30.10;99.90;;;;;;4995469;28;20101;-82
2023/06/18 11:56:45;;;;;;;10.77;6.63;;;30.00;99.90;;;;;;4996631;28;20034;-83
2023/06/18 11:59:12;;;;;;;13.05;8.20;;;29.70;99.90;;;;;;4989940;28;20089;-82
2023/06/18 12:01:38;;;;;;;12.55;7.43;;;29.40;99.90;;;;;;5011917;28;20050;-82
2023/06/18 12:04:05;;;;;;;13.63;7.63;;;29.00;99.90;;;;;;5010906;28;20054;-82
2023/06/18 12:06:33;;;;;;;11.10;7.72;;;28.90;99.90;;;;;;4996129;28;20050;-84
2023/06/18 12:08:59;;;;;;;12.10;7.75;;;28.70;99.90;;;;;;4996843;28;20054;-84
2023/06/18 12:11:27;;;;;;;13.95;7.63;;;28.70;99.90;;;;;;5010779;28;20054;-82
2023/06/18 12:13:54;;;;;;;12.13;7.82;;;28.70;99.90;;;;;;4995856;28;20416;-82
2023/06/18 12:19:08;;;;;;;11.80;7.18;;;28.70;99.90;;;;;;5010802;28;20082;-81
2023/06/18 12:21:35;;;;;;;12.48;7.50;;;28.50;99.90;;;;;;5010955;28;20142;-82
2023/06/18 12:24:01;;;;;;;10.80;7.60;;;28.40;99.90;;;;;;4994998;28;20097;-83
2023/06/18 12:26:28;;;;;;;10.45;7.28;;;28.40;99.90;;;;;;4995754;28;20046;-83
2023/06/18 12:28:55;;;;;;;11.05;7.25;;;28.20;99.90;;;;;;4995756;28;20057;-83
2023/06/18 12:31:21;;;;;;;13.60;7.35;;;28.00;99.90;;;;;;5010322;28;20081;-82
2023/06/18 12:33:48;;;;;;;10.63;7.38;;;27.80;99.90;;;;;;4995115;28;20046;-82
2023/06/18 12:38:48;;;;;;;11.13;7.05;;;27.40;99.90;;;;;;4995085;28;20065;-81
2023/06/18 12:41:14;;;;;;;13.40;7.53;;;27.30;99.90;;;;;;4994563;28;20432;-82
2023/06/18 12:43:41;;;;;;;10.40;7.05;;;27.20;99.90;;;;;;4994183;28;20387;-82
2023/06/18 12:46:10;;;;;;;11.20;7.57;;;26.90;99.90;;;;;;4995264;28;20050;-81
2023/06/18 12:48:37;;;;;;;11.73;6.97;;;26.80;99.90;;;;;;5010968;28;20125;-83
2023/06/18 12:51:03;;;;;;;12.05;7.25;;;26.70;99.90;;;;;;4994390;28;20053;-84
2023/06/18 12:53:31;;;;;;;11.23;7.68;;;26.70;99.90;;;;;;4995564;28;20034;-83
2023/06/18 12:58:44;;;;;;;11.52;7.00;;;26.70;99.90;;;;;;4994451;28;20100;-83
2023/06/18 13:01:12;;;;;;;13.35;7.35;;;26.40;99.90;;;;;;4981906;28;20081;-83
2023/06/18 13:03:41;;;;;;;9.98;6.90;;;26.30;99.90;;;;;;4993665;28;20073;-84
2023/06/18 13:08:38;;;;;;;11.80;6.50;;;26.10;99.90;;;;;;4995411;28;20527;-83
2023/06/18 13:11:05;;;;;;;11.20;7.72;;;26.00;99.90;;;;;;5010265;28;20737;-86
2023/06/18 13:13:32;;;;;;;12.43;6.57;;;25.90;99.90;;;;;;4992118;28;20097;-82
2023/06/18 13:15:59;;;;;;;10.52;8.02;;;26.00;99.90;;;;;;4992141;28;20077;-83
2023/06/18 13:18:26;;;;;;;11.88;7.93;;;25.70;99.90;;;;;;4994675;28;20464;-85
2023/06/18 13:20:55;;;;;;;11.35;6.95;;;25.70;99.90;;;;;;4994129;28;20389;-83
2023/06/18 13:23:21;;;;;;;10.93;6.32;;;25.70;99.90;;;;;;4995087;28;20428;-84
2023/06/18 13:28:34;;;;;;;11.70;6.50;;;25.50;99.90;;;;;;4995444;28;20065;-87
2023/06/18 13:31:00;;;;;;;10.93;7.38;;;25.50;99.90;;;;;;4998321;28;20113;-83
2023/06/18 13:33:27;;;;;;;13.95;6.88;;;25.40;99.90;;;;;;4998285;28;20046;-83
2023/06/18 13:35:55;;;;;;;12.15;6.85;;;25.20;99.90;;;;;;4997880;28;20125;-85
2023/06/18 13:38:22;;;;;;;12.50;7.82;;;25.30;99.90;;;;;;4998214;28;20035;-84
2023/06/18 13:40:48;;;;;;;10.77;6.05;;;25.50;99.90;;;;;;4999144;28;20108;-81
2023/06/18 13:43:15;;;;;;;10.77;7.10;;;25.60;99.90;;;;;;4998804;28;20101;-81
2023/06/18 13:45:43;;;;;;;10.80;6.15;;;25.60;99.90;;;;;;4998050;28;20122;-81
2023/06/18 13:48:10;;;;;;;10.15;7.80;;;25.50;99.90;;;;;;4998946;28;20539;-86
2023/06/18 13:50:37;;;;;;;10.57;6.25;;;25.60;99.90;;;;;;4997378;28;20077;-83
2023/06/18 13:53:08;;;;;;;12.05;6.85;;;25.70;99.90;;;;;;4998214;28;20072;-83
2023/06/18 13:55:36;;;;;;;10.60;7.32;;;25.60;99.90;;;;;;4998801;28;20042;-83
2023/06/18 13:58:03;;;;;;;8.88;6.70;;;25.60;99.90;;;;;;4997031;28;20058;-83
2023/06/18 14:00:30;;;;;;;10.48;6.30;;;25.50;99.90;;;;;;4985847;28;20126;-84
2023/06/18 14:03:01;;;;;;;11.77;7.18;;;25.50;99.90;;;;;;4978254;28;20059;-88
2023/06/18 14:08:31;;;;;;;13.00;6.78;;;25.00;99.90;;;;;;4994029;28;20069;-84
2023/06/18 14:10:58;;;;;;;12.02;6.85;;;24.80;99.90;;;;;;5013195;28;20101;-84
2023/06/18 14:13:24;;;;;;;11.82;6.25;;;24.50;99.90;;;;;;4998209;28;20038;-82
2023/06/18 14:15:52;;;;;;;13.50;7.28;;;24.40;99.90;;;;;;4998253;28;20065;-84